Página principal
METAR-TAF:

METAR-TAF

Aeroportos :

Aeroporto Internacional de Ancara Esenboğa

Ancara Esenboğa, Turquia

latitude: 40-07N, longitude: 032-59E, altura: 953 m

Observação actual do tempo

O boletim foi feito há 44 minutos, às 20:50 UTC
Vento calmo
Temperatura -2°C
Humidade 80%
Pressão 1023 hPa
Visibilidade: 8000 m

METAR: LTAC 202050Z 00000KT 8000 NSC M02/M05 Q1023 NOSIG RMK RWY21L 01003KT RWY03L 02001KT RWY21R 00000KT

Hora: 00:34 (21:34 UTC)

Previsão

O boletim foi feito há 4 horas e 54 minutos, às 16:40 UTC
Previsão válida de 20 às 18 UTC a 21 às 18 UTC
Vento 2 kt com direcção variável
Visibilidade 10 km ou mais
sem nuvens abaixo de 1500 metros e sem cumulonimbus
Probabilidade 40% :
Temporariamente
de 21 às 02 UTC a 21 às 06 UTC
Visibilidade: 4000 m
neblina

TAF: LTAC 201640Z 2018/2118 VRB02KT CAVOK PROB40 TEMPO 2102/2106 4000 BR

Observações e previsões do tempo de mais de 4000 aeroportos (mensagens METAR e TAF).

As estações disponíveis são os pontos amarelos e vermelhos sobre o mapa.

Mova o rato sobre o mapa para ver o nome da estação.

Depois clique no ponto para visualizar as observações e previsões meteorológicas.

Para alterar o mapa : clique nos botões verdes com uma cruz preta para aumentar o zoom; no botão verde com uma pitada de zoom; ou nas setas verdes para mapas adjacentes.


METAR-TAF: